Time;durP1;ratioP1;P1;durP2;ratioP2;P2;SDS_P1;SDS_P2;PMS_P1;PMS_P2;Temp;Humidity;BMP_temperature;BMP_pressure;BME280_temperature;BME280_humidity;BME280_pressure;Samples;Min_cycle;Max_cycle;Signal;HPM_P1;HPM_P2
2024/02/09 00:00:23;;;;;;;8.4;4.9;;;;;;;4.12;88.9;96903.333333333;;;;
2024/02/09 00:10:23;;;;;;;13.2;6.1;;;;;;;3.75;89.49;96875;;;;
2024/02/09 00:21:23;;;;;;;13.2;6.1;;;;;;;3.8;89.85;96890;;;;
2024/02/09 00:31:23;;;;;;;13.2;6.1;;;;;;;3.79;90.23;96898.333333333;;;;
2024/02/09 00:42:23;;;;;;;11.3;6.1;;;;;;;3.71;90.26;96901.666666667;;;;
2024/02/09 00:53:24;;;;;;;11.3;6.1;;;;;;;3.75;90.5;96910;;;;
2024/02/09 01:03:24;;;;;;;11.4;5.9;;;;;;;3.53;90.62;96913.333333333;;;;
2024/02/09 03:10:23;;;;;;;10.6;6.7;;;;;;;3.05;90.73;96866.666666667;;;;
2024/02/09 03:20:24;;;;;;;10.6;6.7;;;;;;;3.1;90.86;96860;;;;
2024/02/09 03:31:25;;;;;;;10.6;6.7;;;;;;;3.06;90.58;96861.666666667;;;;
2024/02/09 03:41:25;;;;;;;14.8;6.3;;;;;;;3.07;90.51;96866.666666667;;;;
2024/02/09 03:51:25;;;;;;;14.8;6.3;;;;;;;3.16;90.26;96861.666666667;;;;
2024/02/09 04:01:23;;;;;;;14.8;6.3;;;;;;;3.27;90.41;96865;;;;
2024/02/09 04:12:23;;;;;;;11.7;6.4;;;;;;;3.31;89.9;96860;;;;
2024/02/09 04:22:23;;;;;;;11.7;6.4;;;;;;;3.32;89.98;96876.666666667;;;;
2024/02/09 04:32:23;;;;;;;12.2;7.7;;;;;;;3.36;89.87;96863.333333333;;;;
2024/02/09 04:43:23;;;;;;;12.2;7.7;;;;;;;3.19;90.24;96843.333333333;;;;
2024/02/09 04:53:23;;;;;;;12.2;7.7;;;;;;;3.26;90.13;96835;;;;
2024/02/09 05:03:23;;;;;;;15.1;8.9;;;;;;;3.41;89.84;96836.666666667;;;;
2024/02/09 05:14:23;;;;;;;15.1;8.9;;;;;;;3.39;90.61;96821.666666667;;;;
2024/02/09 05:24:25;;;;;;;15.1;8.9;;;;;;;3.36;90.42;96828.333333333;;;;
2024/02/09 05:35:23;;;;;;;15.1;8.5;;;;;;;3.46;90.11;96825;;;;
2024/02/09 05:45:24;;;;;;;15.1;8.5;;;;;;;3.35;90.13;96821.666666667;;;;
2024/02/09 05:56:25;;;;;;;15.1;8.5;;;;;;;3.41;90.03;96825;;;;
2024/02/09 06:06:23;;;;;;;16.9;8.8;;;;;;;3.26;90.53;96831.666666667;;;;
2024/02/09 06:17:23;;;;;;;16.9;8.8;;;;;;;3.49;90.55;96838.333333333;;;;
2024/02/09 06:27:23;;;;;;;16.9;8.8;;;;;;;3.42;90.08;96838.333333333;;;;
2024/02/09 06:38:23;;;;;;;15;8;;;;;;;3.6;89.78;96848.333333333;;;;
2024/02/09 06:48:25;;;;;;;15;8;;;;;;;3.67;90.25;96845;;;;
2024/02/09 06:59:23;;;;;;;15;8;;;;;;;3.89;89.98;96856.666666667;;;;
2024/02/09 07:09:25;;;;;;;16.4;9.4;;;;;;;4.13;89.31;96865;;;;
2024/02/09 07:20:23;;;;;;;16.4;9.4;;;;;;;4.3;89.48;96865;;;;
2024/02/09 07:31:23;;;;;;;16.4;9.4;;;;;;;4.36;88.75;96861.666666667;;;;
2024/02/09 07:41:23;;;;;;;20.4;11.8;;;;;;;4.51;88.96;96863.333333333;;;;
2024/02/09 07:52:28;;;;;;;20.4;11.8;;;;;;;4.69;88.31;96868.333333333;;;;
2024/02/09 08:02:23;;;;;;;19.6;10.3;;;;;;;4.77;87.47;96875;;;;
2024/02/09 08:13:23;;;;;;;19.6;10.3;;;;;;;4.98;87.39;96871.666666667;;;;
2024/02/09 08:24:23;;;;;;;19.6;10.3;;;;;;;5.22;86.77;96865;;;;
2024/02/09 08:35:23;;;;;;;;;;;;;;;;;96863.333333333;;;;
2024/02/09 08:45:23;;;;;;;;;;;;;;;;;96860;;;;
2024/02/09 08:56:23;;;;;;;22.8;12.2;;;;;;;6.05;85.61;96861.666666667;;;;
2024/02/09 09:07:23;;;;;;;21;12.5;;;;;;;6.34;85.69;96861.666666667;;;;
2024/02/09 09:17:24;;;;;;;;;;;;;;;;;96861.666666667;;;;
2024/02/09 09:28:23;;;;;;;;;;;;;;;;;96848.333333333;;;;
2024/02/09 09:38:23;;;;;;;21.8;13.5;;;;;;;6.57;85.31;96841.666666667;;;;
2024/02/09 09:49:24;;;;;;;;;;;;;;;;;96835;;;;
2024/02/09 09:59:23;;;;;;;;;;;;;;;;;96826.666666667;;;;
2024/02/09 10:10:24;;;;;;;;;;;;;;;;;96816.666666667;;;;
2024/02/09 10:20:23;;;;;;;;;;;;;;;;;96808.333333333;;;;
2024/02/09 10:31:24;;;;;;;;;;;;;;;8.28;82.9;96788.333333333;;;;
2024/02/09 10:42:23;;;;;;;29.4;22.1;;;;;;;8.71;81.68;96768.333333333;;;;
2024/02/09 10:52:23;;;;;;;29.4;22.1;;;;;;;8.8;80.68;96773.333333333;;;;
2024/02/09 11:02:23;;;;;;;25.3;22;;;;;;;8.88;82.32;96758.333333333;;;;
2024/02/09 11:13:23;;;;;;;25.3;22;;;;;;;9.36;81.6;96740;;;;
2024/02/09 11:24:23;;;;;;;25.3;22;;;;;;;9.28;82.3;96728.333333333;;;;
2024/02/09 11:34:24;;;;;;;29.2;22.4;;;;;;;9.36;81.95;96721.666666667;;;;
2024/02/09 11:45:23;;;;;;;29.2;22.4;;;;;;;9.15;82.23;96703.333333333;;;;
2024/02/09 11:56:23;;;;;;;29.2;22.4;;;;;;;9.2;82.56;96698.333333333;;;;
2024/02/09 12:06:23;;;;;;;32.5;24.6;;;;;;;9.6;81.74;96691.666666667;;;;
2024/02/09 12:17:24;;;;;;;32.5;24.6;;;;;;;9.92;81.34;96686.666666667;;;;
2024/02/09 12:28:24;;;;;;;32.5;24.6;;;;;;;9.66;80.55;96693.333333333;;;;
2024/02/09 12:38:23;;;;;;;34.7;25.5;;;;;;;8.94;82.5;96685;;;;
2024/02/09 12:48:23;;;;;;;34.7;25.5;;;;;;;8.99;82.24;96695;;;;
2024/02/09 12:59:24;;;;;;;34.7;25.5;;;;;;;9.08;82.53;96688.333333333;;;;
2024/02/09 13:09:24;;;;;;;33.9;26.6;;;;;;;9.09;82.02;96691.666666667;;;;
2024/02/09 13:19:24;;;;;;;33.9;26.6;;;;;;;8.77;82.47;96701.666666667;;;;
2024/02/09 13:30:23;;;;;;;33.9;26.6;;;;;;;8.32;83.81;96700;;;;
2024/02/09 13:41:23;;;;;;;34.2;22.8;;;;;;;8.48;83.24;96715;;;;
2024/02/09 13:51:29;;;;;;;34.2;22.8;;;;;;;8.24;83.72;96715;;;;
2024/02/09 14:01:23;;;;;;;31.4;18.6;;;;;;;8.19;83.89;96706.666666667;;;;
2024/02/09 14:12:24;;;;;;;31.4;18.6;;;;;;;8.2;84.7;96698.333333333;;;;
2024/02/09 14:22:23;;;;;;;31.4;18.6;;;;;;;8.08;85.53;96693.333333333;;;;
2024/02/09 14:33:24;;;;;;;29.1;19.4;;;;;;;8.35;85.04;96696.666666667;;;;
2024/02/09 14:44:23;;;;;;;29.1;19.4;;;;;;;8.33;84.5;96695;;;;
2024/02/09 14:54:23;;;;;;;29.1;19.4;;;;;;;8.31;84.25;96676.666666667;;;;
2024/02/09 15:04:24;;;;;;;38.3;22.5;;;;;;;8.08;85.21;96673.333333333;;;;
2024/02/09 15:14:24;;;;;;;38.3;22.5;;;;;;;8.04;85.73;96671.666666667;;;;
2024/02/09 15:25:24;;;;;;;38.3;22.5;;;;;;;7.68;86.15;96686.666666667;;;;
2024/02/09 15:36:24;;;;;;;37.6;21.6;;;;;;;7.5;86.58;96686.666666667;;;;
2024/02/09 15:46:25;;;;;;;37.6;21.6;;;;;;;7.35;85.91;96688.333333333;;;;
2024/02/09 15:56:25;;;;;;;37.6;21.6;;;;;;;7.12;85.63;96673.333333333;;;;
2024/02/09 16:06:23;;;;;;;90;50.1;;;;;;;6.6;88.21;96673.333333333;;;;
2024/02/09 16:16:24;;;;;;;90;50.1;;;;;;;6.6;88.22;96668.333333333;;;;
2024/02/09 16:27:23;;;;;;;90;50.1;;;;;;;6.4;89.49;96690;;;;
2024/02/09 16:37:24;;;;;;;26.9;18.7;;;;;;;6.45;88.58;96690;;;;
2024/02/09 16:48:23;;;;;;;26.9;18.7;;;;;;;6.23;88.86;96701.666666667;;;;
2024/02/09 16:58:23;;;;;;;26.9;18.7;;;;;;;6.13;88.38;96716.666666667;;;;
2024/02/09 17:09:23;;;;;;;43.4;23.3;;;;;;;5.99;88.26;96718.333333333;;;;
2024/02/09 17:19:26;;;;;;;43.4;23.3;;;;;;;5.91;88.27;96728.333333333;;;;
2024/02/09 17:30:23;;;;;;;43.4;23.3;;;;;;;5.73;89.81;96716.666666667;;;;
2024/02/09 17:40:24;;;;;;;39.3;21.6;;;;;;;5.72;89.82;96711.666666667;;;;
2024/02/09 17:51:24;;;;;;;39.3;21.6;;;;;;;5.66;88.8;96706.666666667;;;;
2024/02/09 18:01:23;;;;;;;36;23.3;;;;;;;5.45;89.19;96693.333333333;;;;
2024/02/09 18:11:24;;;;;;;36;23.3;;;;;;;5.24;88.72;96686.666666667;;;;
2024/02/09 18:22:24;;;;;;;36;23.3;;;;;;;5;88.36;96698.333333333;;;;
2024/02/09 18:33:24;;;;;;;35.4;19.8;;;;;;;4.86;88.8;96696.666666667;;;;
2024/02/09 18:44:24;;;;;;;35.4;19.8;;;;;;;4.6;88.69;96698.333333333;;;;
2024/02/09 18:54:24;;;;;;;35.4;19.8;;;;;;;4.6;88.85;96703.333333333;;;;
2024/02/09 19:05:24;;;;;;;48.4;28.6;;;;;;;4.52;88.82;96676.666666667;;;;
2024/02/09 19:16:24;;;;;;;48.4;28.6;;;;;;;4.38;88.73;96666.666666667;;;;
2024/02/09 19:26:24;;;;;;;48.4;28.6;;;;;;;4.21;89.2;96685;;;;
2024/02/09 19:36:24;;;;;;;63.7;43.4;;;;;;;4.22;88.84;96683.333333333;;;;
2024/02/09 19:46:24;;;;;;;63.7;43.4;;;;;;;4.16;88.55;96678.333333333;;;;
2024/02/09 19:56:24;;;;;;;63.7;43.4;;;;;;;3.79;90.01;96681.666666667;;;;
2024/02/09 20:06:27;;;;;;;33;20.6;;;;;;;3.84;89.62;96678.333333333;;;;
2024/02/09 20:17:26;;;;;;;33;20.6;;;;;;;3.71;89.04;96673.333333333;;;;
2024/02/09 20:28:24;;;;;;;33;20.6;;;;;;;3.52;89.28;96663.333333333;;;;
2024/02/09 20:38:24;;;;;;;26.3;17.3;;;;;;;3.53;89.04;96671.666666667;;;;
2024/02/09 20:48:24;;;;;;;26.3;17.3;;;;;;;3.32;89.94;96663.333333333;;;;
2024/02/09 20:58:26;;;;;;;26.3;17.3;;;;;;;3.55;90.06;96673.333333333;;;;
2024/02/09 21:09:25;;;;;;;45.3;27.1;;;;;;;3.66;89.64;96675;;;;
2024/02/09 21:19:24;;;;;;;45.3;27.1;;;;;;;3.48;90.12;96676.666666667;;;;
2024/02/09 21:30:24;;;;;;;45.3;27.1;;;;;;;3.65;90.14;96666.666666667;;;;
2024/02/09 21:40:24;;;;;;;41.8;25.4;;;;;;;3.58;89.99;96655;;;;
2024/02/09 21:51:24;;;;;;;41.8;25.4;;;;;;;3.66;90.26;96648.333333333;;;;
2024/02/09 22:02:27;;;;;;;33;22.6;;;;;;;3.89;90.41;96656.666666667;;;;
2024/02/09 22:13:24;;;;;;;33;22.6;;;;;;;3.82;90.32;96660;;;;
2024/02/09 22:23:24;;;;;;;33;22.6;;;;;;;4.08;90.41;96656.666666667;;;;
2024/02/09 22:34:25;;;;;;;31.1;20.6;;;;;;;4.25;90.52;96645;;;;
2024/02/09 22:44:24;;;;;;;31.1;20.6;;;;;;;4.56;91.25;96645;;;;
2024/02/09 22:54:24;;;;;;;31.1;20.6;;;;;;;4.58;90.07;96636.666666667;;;;
2024/02/09 23:05:25;;;;;;;32.5;19.1;;;;;;;4.46;90.06;96631.666666667;;;;
2024/02/09 23:16:24;;;;;;;32.5;19.1;;;;;;;4.64;90.44;96631.666666667;;;;
2024/02/09 23:27:25;;;;;;;32.5;19.1;;;;;;;4.99;90.64;96630;;;;
2024/02/09 23:37:24;;;;;;;31.5;19.3;;;;;;;5.14;90.14;96633.333333333;;;;
2024/02/09 23:47:24;;;;;;;31.5;19.3;;;;;;;5.16;89.88;96643.333333333;;;;
2024/02/09 23:57:24;;;;;;;31.5;19.3;;;;;;;5.24;89.96;96660;;;;
